DW9574 Weather Reports


Display with metric or nautical units.
time (UTC)temp
F
wind
direction
speed
MPH
gust
MPH
rain 1hr
in
rain 24hr
in
rain mn
in
humidity
%
barometer
mb
20190222091005 46 359 3.0 7.0 0.14 1.51 0.47 95 1019.1
20190222090505 46 16 3.0 6.0 0.17 1.50 0.46 95 1019.2
20190222090005 46 28 2.0 5.0 0.19 1.49 0.45 95 1018.9
20190222085505 46 20 2.0 4.0 0.19 1.48 0.44 95 1019.0
20190222085004 46 8 2.0 4.0 0.19 1.48 0.44 95 1019.2
20190222084505 46 6 1.0 4.0 0.19 1.47 0.43 95 1019.2
20190222084005 46 6 1.0 5.0 0.18 1.45 0.41 95 1019.1
20190222083005 46 65 2.0 6.0 0.18 1.44 0.40 95 1019.3
20190222082505 46 60 3.0 6.0 0.19 1.44 0.40 95 1018.7
20190222082005 46 29 3.0 7.0 0.19 1.43 0.39 95 1018.8
20190222081505 46 357 3.0 7.0 0.17 1.40 0.36 95 1018.8
20190222081004 46 340 3.0 6.0 0.14 1.36 0.32 95 1019.3
20190222080505 46 343 3.0 6.0 0.13 1.33 0.29 95 1019.3
20190222080005 46 356 2.0 6.0 0.11 1.30 0.26 95 1019.1
20190222075505 46 22 2.0 7.0 0.12 1.29 0.25 95 1019.0
20190222075005 46 21 2.0 7.0 0.13 1.29 0.25 95 1018.6
20190222074504 46 25 2.0 6.0 0.13 1.28 0.24 95 1019.0
20190222074005 46 21 3.0 7.0 0.15 1.27 0.23 95 1018.8
20190222073504 46 26 3.0 7.0 0.15 1.26 0.22 95 1019.0
20190222073004 46 38 3.0 7.0 0.16 1.26 0.22 95 1018.5
20190222072505 46 37 3.0 7.0 0.16 1.25 0.21 95 1018.6
20190222072004 46 28 2.0 5.0 0.16 1.24 0.20 95 1019.0
20190222071505 46 31 3.0 10.0 0.15 1.23 0.19 95 1019.1
20190222071005 46 25 4.0 10.0 0.16 1.22 0.18 95 1019.2
20190222070505 46 6 3.0 6.0 0.15 1.20 0.16 95 1018.9
20190222070006 46 355 2.0 6.0 0.15 1.19 0.15 95 1019.6
20190222065505 46 8 1.0 6.0 0.13 1.17 0.13 94 1019.5
20190222065004 46 9 2.0 6.0 0.14 1.16 0.12 94 1019.9
20190222064505 46 359 2.0 6.0 0.14 1.15 0.11 94 1019.6
20190222064005 46 347 2.0 5.0 0.12 1.12 0.08 94 1020.1
20190222063505 46 343 2.0 5.0 0.11 1.11 0.07 94 1019.9
20190222063004 46 339 2.0 5.0 0.11 1.10 0.06 94 1019.9
20190222062505 46 336 1.0 3.0 0.11 1.09 0.05 94 1020.0
20190222062005 46 351 1.0 3.0 0.11 1.08 0.04 94 1019.8
20190222061505 46 354 1.0 4.0 0.12 1.08 0.04 94 1019.9
20190222061004 46 358 2.0 4.0 0.11 1.06 0.02 94 1019.7
20190222060504 46 10 2.0 4.0 0.12 1.05 0.01 94 1019.8
20190222060007 46 25 3.0 6.0 0.11 1.04 0.00 94 1019.5
20190222055504 46 36 3.0 6.0 0.11 1.03 1.03 94 1019.6
20190222055004 46 42 3.0 6.0 0.11 1.02 1.02 94 1019.4
20190222054504 46 50 3.0 7.0 0.12 1.01 1.01 94 1019.2
20190222054005 46 50 4.0 8.0 0.14 1.00 1.00 94 1019.4
20190222053505 46 45 4.0 8.0 0.18 1.00 1.00 94 1019.3
20190222053004 46 48 5.0 8.0 0.18 0.99 0.99 94 1019.6
20190222052505 46 52 5.0 10.0 0.16 0.97 0.97 94 1019.5
20190222052005 46 51 5.0 11.0 0.16 0.97 0.97 94 1019.8
20190222051506 46 49 6.0 12.0 0.15 0.96 0.96 94 1019.5
20190222051004 46 48 6.0 12.0 0.14 0.95 0.95 94 1019.4
20190222050504 46 52 6.0 12.0 0.13 0.93 0.93 94 1019.5
20190222050004 46 54 6.0 12.0 0.13 0.93 0.93 94 1019.6
20190222045505 46 53 5.0 11.0 0.12 0.92 0.92 94 1019.8
20190222045004 46 56 6.0 12.0 0.12 0.91 0.91 94 1020.0
20190222044504 46 49 6.0 12.0 0.10 0.89 0.89 94 1019.8
20190222044004 46 49 5.0 9.0 0.07 0.85 0.85 94 1020.0
20190222043507 46 56 6.0 11.0 0.03 0.81 0.81 94 1020.5
20190222043005 46 42 5.0 11.0 0.04 0.81 0.81 94 1020.3
20190222042505 46 20 5.0 10.0 0.04 0.81 0.81 94 1020.6
20190222042005 46 12 4.0 10.0 0.05 0.81 0.81 94 1020.6
20190222041505 46 1 4.0 9.0 0.06 0.81 0.81 94 1020.6
20190222041004 46 354 5.0 9.0 0.07 0.81 0.81 94 1020.7
20190222040505 46 6 5.0 9.0 0.07 0.80 0.80 94 1020.7
20190222040005 46 25 5.0 9.0 0.09 0.80 0.80 94 1020.7
20190222035505 46 29 5.0 9.0 0.11 0.80 0.80 94 1020.4
20190222035005 46 22 5.0 9.0 0.11 0.79 0.79 94 1020.9
20190222034505 46 24 5.0 11.0 0.12 0.79 0.79 94 1021.0
20190222034004 46 18 5.0 11.0 0.11 0.78 0.78 94 1021.1
20190222033505 46 359 5.0 11.0 0.11 0.78 0.78 94 1021.3
20190222033005 46 349 5.0 11.0 0.10 0.77 0.77 94 1021.7
20190222032505 46 349 4.0 8.0 0.10 0.77 0.77 94 1021.7
20190222032004 46 7 5.0 9.0 0.09 0.76 0.76 94 1021.7
20190222031504 46 3 5.0 9.0 0.08 0.75 0.75 94 1021.2
20190222031004 46 349 5.0 10.0 0.07 0.74 0.74 94 1021.3
20190222030505 46 342 4.0 10.0 0.05 0.72 0.72 94 1021.2
20190222030005 46 331 3.0 9.0 0.03 0.70 0.70 94 1021.3
20190222025504 46 332 3.0 7.0 0.02 0.69 0.69 94 1021.2
20190222025004 47 354 4.0 9.0 0.01 0.68 0.68 94 1021.2
20190222024506 46 9 4.0 9.0 0.01 0.67 0.67 94 1020.6
20190222024005 46 24 5.0 9.0 0.01 0.67 0.67 94 1020.4
20190222023504 46 32 6.0 10.0 0.01 0.67 0.67 94 1019.9
20190222023005 46 27 5.0 10.0 0.01 0.67 0.67 94 1020.0
20190222022505 46 25 5.0 10.0 0.01 0.67 0.67 94 1020.2
20190222022004 46 17 4.0 8.0 0.01 0.67 0.67 94 1020.2
20190222021505 46 14 4.0 8.0 0.01 0.68 0.67 94 1020.3
20190222021004 46 14 5.0 12.0 0.01 0.68 0.67 94 1020.1
20190222020504 46 9 5.0 12.0 0.01 0.68 0.67 94 1020.0
20190222020005 46 14 5.0 10.0 0.01 0.68 0.67 94 1019.8
20190222015505 46 18 5.0 12.0 0.02 0.68 0.67 94 1019.8
20190222015005 46 22 5.0 12.0 0.02 0.68 0.67 94 1019.6
20190222014504 46 23 5.0 9.0 0.01 0.67 0.66 94 1019.8
20190222014004 46 13 5.0 10.0 0.01 0.67 0.66 94 1019.9
20190222013505 46 4 4.0 10.0 0.01 0.67 0.66 94 1019.9
20190222013004 46 349 4.0 9.0 0.01 0.67 0.66 94 1020.3
20190222012504 46 357 5.0 11.0 0.01 0.67 0.66 94 1020.3
20190222012004 46 11 5.0 11.0 0.01 0.67 0.66 94 1020.0
20190222011506 46 354 5.0 13.0 0.01 0.67 0.66 94 1019.6
20190222011005 46 337 5.0 13.0 0.01 0.67 0.66 94 1019.6
20190222010505 46 344 4.0 10.0 0.01 0.67 0.66 94 1020.1
20190222010005 46 358 4.0 9.0 0.01 0.67 0.66 94 1019.6
20190222005504 46 348 4.0 8.0 0.01 0.66 0.65 94 1019.4
20190222005006 46 348 4.0 8.0 0.02 0.66 0.65 94 1019.5
20190222004505 46 6 4.0 8.0 0.04 0.66 0.65 94 1019.2
20190222004005 46 8 5.0 8.0 0.06 0.66 0.65 94 1018.8
20190222003504 46 8 4.0 9.0 0.07 0.66 0.65 94 1018.9
20190222003005 46 23 4.0 9.0 0.07 0.66 0.65 94 1019.0
20190222002504 46 27 4.0 7.0 0.07 0.66 0.65 94 1018.9
20190222002004 46 15 4.0 9.0 0.07 0.66 0.65 94 1018.8
20190222001004 47 359 4.0 7.0 0.07 0.66 0.65 94 1019.2
20190222000504 47 10 3.0 7.0 0.07 0.67 0.65 94 1019.2
20190222000005 47 5 3.0 7.0 0.07 0.67 0.65 94 1019.1
20190221235505 47 8 5.0 9.0 0.06 0.66 0.64 94 1019.1
20190221235005 47 18 3.0 9.0 0.05 0.65 0.63 94 1018.5
20190221234505 47 21 3.0 7.0 0.03 0.63 0.61 94 1018.9
20190221234005 47 359 3.0 7.0 0.01 0.61 0.59 94 1019.2
20190221233505 47 355 3.0 7.0 0.00 0.60 0.58 94 1019.2
20190221233005 47 11 5.0 10.0 0.01 0.60 0.58 94 1018.7
20190221232504 47 17 5.0 10.0 0.02 0.60 0.58 94 1018.3
20190221232004 47 19 4.0 9.0 0.04 0.60 0.58 94 1018.0
20190221231504 47 30 3.0 10.0 0.05 0.60 0.58 94 1019.1
20190221231004 47 44 5.0 13.0 0.06 0.60 0.58 94 1018.4
20190221230505 47 45 5.0 13.0 0.07 0.60 0.58 94 1017.7
20190221230005 47 35 6.0 11.0 0.09 0.60 0.58 94 1017.5
20190221225504 47 33 7.0 15.0 0.10 0.60 0.58 94 1017.3
20190221225005 47 32 5.0 15.0 0.11 0.60 0.58 94 1017.5
20190221224505 47 38 6.0 14.0 0.12 0.60 0.58 94 1017.7
20190221224005 47 47 7.0 14.0 0.13 0.60 0.58 94 1017.4
20190221223505 47 45 6.0 13.0 0.13 0.60 0.58 94 1017.7
20190221223004 46 42 7.0 11.0 0.14 0.59 0.57 94 1017.8
20190221222505 46 40 6.0 13.0 0.14 0.58 0.56 94 1017.9
20190221222004 46 28 5.0 13.0 0.13 0.56 0.54 94 1017.6
20190221221505 46 8 3.0 7.0 0.13 0.55 0.53 94 1018.5
20190221221004 46 14 2.0 6.0 0.15 0.54 0.52 94 1018.5
20190221220504 46 12 2.0 6.0 0.15 0.52 0.50 94 1019.0
20190221220005 46 15 3.0 7.0 0.16 0.51 0.49 94 1018.5
20190221215505 46 27 3.0 7.0 0.17 0.50 0.48 94 1018.2
20190221215004 46 34 2.0 6.0 0.17 0.49 0.47 94 1018.6
20190221214505 46 35 3.0 7.0 0.16 0.48 0.46 94 1018.8
20190221214005 46 39 4.0 10.0 0.16 0.47 0.45 94 1018.5
20190221213505 46 32 5.0 10.0 0.18 0.47 0.45 94 1018.3
20190221213004 46 30 4.0 10.0 0.18 0.45 0.43 94 1018.2
20190221212505 46 34 4.0 11.0 0.19 0.44 0.42 94 1018.4
20190221212004 46 26 4.0 11.0 0.20 0.43 0.41 94 1018.2
20190221211504 46 8 4.0 10.0 0.19 0.41 0.39 94 1018.2
20190221211005 46 12 4.0 11.0 0.18 0.40 0.37 94 1018.5
20190221210505 46 20 4.0 11.0 0.17 0.38 0.35 94 1018.1
20190221210005 46 4 4.0 9.0 0.16 0.36 0.33 94 1018.3
20190221205504 46 1 4.0 9.0 0.15 0.34 0.31 94 1018.2
20190221205005 46 8 4.0 9.0 0.15 0.33 0.30 94 1018.4
20190221204005 46 19 6.0 11.0 0.17 0.32 0.29 94 1018.0
20190221203504 46 13 5.0 11.0 0.14 0.29 0.26 94 1017.8
20190221203004 46 16 6.0 11.0 0.15 0.28 0.25 94 1018.0
20190221202504 46 23 6.0 11.0 0.15 0.26 0.23 94 1017.7
20190221201504 46 28 2.0 7.0 0.12 0.23 0.20 94 1018.4
20190221201004 46 33 3.0 11.0 0.11 0.21 0.18 94 1017.9
20190221200505 46 21 5.0 11.0 0.11 0.21 0.18 94 1018.0
20190221200004 46 19 5.0 10.0 0.10 0.20 0.17 94 1017.5
20190221195004 46 47 4.0 8.0 0.09 0.18 0.15 94 1018.4
20190221194505 46 38 5.0 11.0 0.07 0.17 0.13 93 1018.6
20190221194005 46 33 3.0 11.0 0.07 0.16 0.12 93 1018.2
20190221193504 46 38 0.0 11.0 0.07 0.16 0.12 93 1017.9
20190221193005 46 13 0.0 2.0 0.06 0.14 0.10 93 1018.3
20190221192504 46 0 0.0 0.0 0.04 0.12 0.08 93 1018.9
20190221192004 46 0 0.0 0.0 0.06 0.13 0.08 93 1019.0
20190221191504 46 24 2.0 9.0 0.06 0.13 0.08 93 1018.9
20190221191004 46 21 3.0 9.0 0.06 0.12 0.07 93 1018.9
20190221190504 46 15 3.0 8.0 0.06 0.12 0.07 93 1018.9
20190221190005 46 5 3.0 9.0 0.07 0.12 0.07 93 1019.1
20190221185505 46 8 4.0 9.0 0.06 0.12 0.06 93 1019.3
20190221185005 46 20 3.0 9.0 0.06 0.14 0.06 93 1019.0
20190221184505 46 16 4.0 6.0 0.06 0.15 0.06 92 1019.1
20190221184004 46 9 4.0 9.0 0.05 0.14 0.05 92 1019.3
20190221183505 46 9 3.0 9.0 0.05 0.14 0.05 92 1019.6
20190221183004 46 7 3.0 6.0 0.04 0.13 0.04 92 1019.7
20190221182504 46 12 3.0 6.0 0.03 0.12 0.03 91 1019.8
20190221182005 46 11 3.0 7.0 0.02 0.11 0.02 91 1019.8
20190221181504 46 10 2.0 7.0 0.02 0.11 0.02 91 1019.8
20190221181004 47 16 3.0 7.0 0.01 0.10 0.01 90 1019.7
20190221180505 47 15 4.0 7.0 0.01 0.10 0.01 90 1019.6
20190221180006 47 16 5.0 12.0 0.00 0.09 0.00 89 1019.5
20190221175505 47 12 5.0 12.0 0.00 0.09 0.00 88 1019.4
20190221175004 47 7 5.0 11.0 0.00 0.10 0.00 88 1019.4
20190221174504 47 15 5.0 11.0 0.00 0.10 0.00 88 1019.2
20190221174004 47 27 5.0 11.0 0.00 0.10 0.00 88 1019.1
20190221173505 47 30 5.0 11.0 0.00 0.12 0.00 88 1019.2
20190221173005 47 35 5.0 9.0 0.00 0.12 0.00 88 1019.3
20190221172505 47 32 4.0 9.0 0.00 0.15 0.00 89 1019.5
20190221172004 47 26 4.0 7.0 0.00 0.28 0.00 89 1019.6
20190221171504 47 32 4.0 8.0 0.00 0.33 0.00 89 1019.8
20190221171004 47 31 4.0 8.0 0.00 0.36 0.00 89 1019.9
20190221170504 47 33 4.0 8.0 0.00 0.41 0.00 89 1019.7
20190221170005 47 34 5.0 9.0 0.00 0.44 0.00 89 1020.1
20190221165504 47 32 5.0 11.0 0.00 0.50 0.00 89 1020.1
20190221165005 47 31 4.0 11.0 0.00 0.53 0.00 89 1020.2
20190221164504 47 25 3.0 8.0 0.00 0.64 0.00 89 1020.3
20190221164004 47 35 4.0 9.0 0.00 0.76 0.00 89 1020.2
20190221163504 47 42 5.0 9.0 0.00 0.83 0.00 89 1019.8
20190221163005 46 34 5.0 9.0 0.00 0.90 0.00 90 1019.8
20190221162504 46 30 5.0 9.0 0.00 1.00 0.00 89 1019.9
20190221162004 46 32 5.0 12.0 0.00 1.04 0.00 90 1020.2
20190221161505 46 30 6.0 12.0 0.00 1.08 0.00 90 1020.0
20190221161004 46 24 7.0 13.0 0.00 1.09 0.00 90 1019.8
20190221160504 46 27 6.0 13.0 0.00 1.09 0.00 90 1020.1
20190221160006 46 29 6.0 14.0 0.00 1.10 0.00 90 1020.2
20190221155505 46 25 6.0 14.0 0.00 1.10 0.00 90 1020.0
20190221155004 46 29 6.0 11.0 0.00 1.10 0.00 89 1020.1
20190221154505 46 26 6.0 12.0 0.00 1.10 0.00 89 1020.0
20190221154005 46 19 7.0 13.0 0.00 1.11 0.00 90 1019.9
20190221153504 46 26 7.0 13.0 0.00 1.11 0.00 90 1019.5
20190221152504 46 24 6.0 11.0 0.00 1.11 0.00 89 1019.8
20190221152004 46 30 5.0 11.0 0.00 1.11 0.00 89 1019.9
20190221151505 46 32 4.0 11.0 0.00 1.11 0.00 90 1019.9
20190221151004 46 22 4.0 10.0 0.00 1.11 0.00 90 1019.9
20190221150504 46 31 4.0 10.0 0.00 1.11 0.00 89 1020.4
20190221150005 46 37 3.0 9.0 0.00 1.11 0.00 90 1020.3
20190221145005 45 40 5.0 10.0 0.00 1.11 0.00 90 1020.2
20190221144505 45 41 4.0 9.0 0.00 1.11 0.00 90 1020.0
20190221144004 45 44 4.0 9.0 0.00 1.11 0.00 90 1020.0
20190221143504 45 37 3.0 9.0 0.00 1.12 0.00 90 1019.8
20190221143005 45 43 3.0 8.0 0.00 1.12 0.00 90 1020.0
20190221142505 45 55 3.0 8.0 0.00 1.12 0.00 90 1019.9
20190221142004 45 34 4.0 9.0 0.00 1.12 0.00 91 1020.0
20190221141505 44 22 5.0 11.0 0.00 1.12 0.00 91 1019.6
20190221141005 44 29 6.0 16.0 0.00 1.12 0.00 91 1019.4
20190221140504 44 35 6.0 16.0 0.00 1.14 0.00 91 1019.3
20190221140005 44 31 5.0 13.0 0.00 1.16 0.00 91 1019.1
20190221135504 44 30 5.0 11.0 0.00 1.22 0.00 92 1019.1
20190221135004 44 30 5.0 11.0 0.00 1.26 0.00 92 1018.8
20190221134504 44 14 5.0 12.0 0.00 1.26 0.00 92 1018.6
20190221133505 44 18 6.0 11.0 0.00 1.33 0.00 92 1018.8
20190221133004 44 28 5.0 10.0 0.00 1.36 0.00 92 1018.7
20190221132504 44 9 6.0 14.0 0.00 1.44 0.00 93 1018.7
20190221132005 43 2 6.0 14.0 0.00 1.47 0.00 93 1018.1
20190221131504 43 7 5.0 9.0 0.00 1.47 0.00 93 1018.3
20190221131004 43 2 4.0 9.0 0.00 1.47 0.00 93 1018.9
20190221130504 43 350 4.0 9.0 0.00 1.48 0.00 93 1019.1
20190221130005 43 352 4.0 8.0 0.00 1.48 0.00 93 1019.2
20190221125504 43 358 5.0 10.0 0.00 1.48 0.00 93 1019.1
20190221125004 43 1 4.0 10.0 0.00 1.49 0.00 93 1019.1
20190221124504 43 356 4.0 8.0 0.00 1.49 0.00 93 1019.3
20190221124005 43 351 3.0 6.0 0.00 1.49 0.00 93 1019.6
20190221123505 43 356 3.0 6.0 0.00 1.49 0.00 93 1019.7
20190221123005 43 1 3.0 6.0 0.00 1.49 0.00 93 1019.4
20190221122504 43 4 3.0 8.0 0.00 1.49 0.00 93 1019.1
20190221122004 43 8 4.0 8.0 0.00 1.49 0.00 93 1018.9
20190221121504 43 8 3.0 7.0 0.00 1.49 0.00 93 1018.8
20190221121005 43 5 3.0 7.0 0.00 1.49 0.00 93 1019.1
20190221120504 43 5 4.0 9.0 0.00 1.49 0.00 93 1019.1
20190221120005 43 6 4.0 9.0 0.00 1.49 0.00 93 1019.1
20190221115504 43 13 3.0 9.0 0.00 1.49 0.00 93 1019.2
20190221115004 43 9 3.0 8.0 0.00 1.49 0.00 93 1018.9
20190221114504 43 3 3.0 8.0 0.00 1.49 0.00 93 1018.8
20190221114004 43 13 3.0 10.0 0.00 1.49 0.00 93 1018.8
20190221113505 43 15 4.0 10.0 0.00 1.49 0.00 93 1018.5
20190221113004 43 6 5.0 9.0 0.00 1.49 0.00 93 1018.2
20190221112504 43 358 4.0 9.0 0.00 1.49 0.00 93 1018.4
20190221112004 43 1 4.0 8.0 0.00 1.49 0.00 93 1018.3
20190221111504 43 4 5.0 8.0 0.00 1.49 0.00 93 1018.1
20190221111004 43 4 5.0 9.0 0.00 1.49 0.00 94 1018.2
20190221110504 43 2 5.0 11.0 0.00 1.49 0.00 94 1018.3
20190221110005 43 4 6.0 11.0 0.00 1.49 0.00 94 1018.2
20190221105505 44 4 6.0 11.0 0.00 1.49 0.00 94 1017.9
20190221105004 44 358 6.0 14.0 0.00 1.49 0.00 94 1017.7
20190221104504 44 353 6.0 14.0 0.00 1.49 0.00 94 1017.6
20190221104004 44 357 6.0 13.0 0.00 1.49 0.00 94 1017.4
20190221103504 44 2 4.0 10.0 0.00 1.49 0.00 94 1017.2
20190221103004 44 355 4.0 8.0 0.00 1.49 0.00 94 1017.7
20190221102505 44 359 4.0 8.0 0.00 1.50 0.00 94 1017.5
20190221102004 44 355 4.0 9.0 0.00 1.50 0.00 94 1017.6
20190221101505 44 355 5.0 9.0 0.00 1.50 0.00 94 1017.6
20190221101005 44 354 4.0 7.0 0.00 1.50 0.00 94 1017.3
20190221100504 44 345 4.0 10.0 0.00 1.50 0.00 94 1017.2
20190221100004 44 346 5.0 10.0 0.00 1.50 0.00 95 1017.2
20190221095505 45 352 6.0 10.0 0.00 1.50 0.00 95 1017.2
20190221095004 45 357 6.0 11.0 0.00 1.50 0.00 95 1017.2
20190221094505 45 355 4.0 11.0 0.00 1.50 0.00 95 1017.2
20190221094005 45 354 3.0 7.0 0.00 1.50 0.00 95 1017.0
20190221093505 45 352 3.0 8.0 0.00 1.50 0.00 95 1017.1
20190221093004 46 349 4.0 8.0 0.00 1.50 0.00 95 1017.0
20190221092504 46 352 4.0 7.0 0.00 1.50 0.00 95 1016.8
20190221092005 46 354 5.0 11.0 0.00 1.50 0.00 95 1016.7
20190221091505 46 356 5.0 11.0 0.00 1.50 0.00 95 1016.6